Prairie Center, Illinois
Current Conditions -  °F | °C
As of 11:15 PM on Sunday 19 Oct 2014 (Local Time) from KVYS Reporting Station
Clear Clear  
Wind Chill: 12°   Ceiling: Unl
Heat Index: 12°   Visibility: 10mi
Dew Point:   Wind: 10mph
Humidity: 74%   Direction: 230°SW
Pressure: 29.94"   Gusts: NA
Location:  41.4349°N, 88.8687°W
Report Text: KVYS 200415Z AUTO 23009KT 10SM CLR 12/07 A2994 RMK AO2 T01160072
Loading
Personal Weather Stations






























Interactive Weather Map
Tropical Storm Tracking
New forecast layout! Learn more

10-Day Weather Forecast

Advertisements
Track Severe Weather on mobile